Estación Meteorológica Peña el Pijo (Robertgarden) [ 05/26/19 18:43:34 CEST ]

Fecha Hora Presion(HPa) Temp (°C) Humedad % Rocio (°C) Viento ( m/s) Direccion Lluvia 1Hora(mm) Lluvia 24H(mm) LLuvia Total(mm)
2019-Jan-10 01:01:49 1005.200 1.1 61 -5.6         161.09
2019-Jan-10 02:01:42 1005.100 0.4 65 -5.4         161.09
2019-Jan-10 03:01:40 1004.900 -0.2 67 -5.6         161.09
2019-Jan-10 04:03:05 1004.800 0.7 64 -5.4         161.09
2019-Jan-10 05:01:39 1004.500 -0.8 64 -6.8         161.09
2019-Jan-10 06:01:46 1004.000 -1.5 63 -7.6         161.09
2019-Jan-10 07:02:05 1003.500 -1.9 62 -8.2         161.09
2019-Jan-10 08:01:57 1003.900 -1.6 59 -8.6         161.09
2019-Jan-10 09:01:47 1004.400 -2.4 59 -9.3         161.09
2019-Jan-10 10:01:44 1005.300 1.9 56 -6.0         161.09
2019-Jan-10 11:01:51 1005.500 6.6 43 -5.2         161.09
2019-Jan-10 12:01:55 1005.800 7.3 40 -5.4         161.09
2019-Jan-10 13:01:56 1005.100 8.1 39 -5.1         161.09
2019-Jan-10 14:01:57 1004.400 8.5 38 -5.1 2.0 NE     161.09
2019-Jan-10 15:01:41 1003.900 9.4 37 -4.7 3.0 NE     161.09
2019-Jan-10 16:01:45 1004.400 7.4 42 -4.7         161.09
2019-Jan-10 17:02:03 1004.900 5.9 44 -5.5         161.09
2019-Jan-10 18:01:47 1005.200 4.0 46 -6.7         161.09
2019-Jan-10 19:01:40 1005.700 1.3 49 -8.3         161.09
2019-Jan-10 20:01:56 1006.500 -1.5 57 -8.9         161.09
2019-Jan-10 21:01:46 1006.800 -2.5 61 -9.0         161.09
2019-Jan-10 22:01:40 1007.500 -3.0 63 -9.1         161.09
2019-Jan-10 23:01:48 1007.900 -3.3 65 -9.0         161.09

Temperatura Máxima:    Temperatura Mínima:-3°
Presión Máxima:1007.900 Hpa    Presión Mínima:1003.500 Hpa


Volver